PORTS® Data Listing: 9076024 Rock Cut, MI

CO-OPS RAW PORTS DATA

************************      PRELIMINARY DATA      ************************** 

     THIS RAW DATA HAS NOT BEEN SUBJECT TO THE NATIONAL OCEAN SERVICE'S        
     QUALITY CONTROL OR QUALITY ASSURANCE PROCEDURES AND DOES NOT MEET         
     THE CRITERIA AND STANDARDS OF OFFICIAL NATIONAL OCEAN SERVICE             
     DATA.  IT IS RELEASED FOR LIMITED PUBLIC USE AS PRELIMINARY DATA TO       
     BE USED ONLY WITH APPROPRIATE CAUTION.                                    

************************      PRELIMINARY DATA      ************************** 


       CD   -   Calendar date
       T    -   Time
       TZ   -   Timezone
       SW   -   Observed secondary water level (inches IGLD 1985)
       PW   -   Observed primary water level (inches IGLD 1985)
       WS   -   Wind speed (knots)
       WD   -   Wind direction (degrees true)
       WG   -   Wind gust (knots)
       AT   -   Air temperature (degrees farenheit)
       WT   -   Water temperature (degrees farenheit)
       AP   -   Air pressure (millibars)
       SA   -   Salinty (PSU - Practical Salinity Units)
       SG   -   Specific gravity
       RH   -   Relative humidity
       AG   -   Air gap (feet)
       VI   -   Visibility (nautical miles)

       ** NOTE **
       A variable that has its data fields filled with "9"s, indicates that
       data was not collected for that sample period.
       **********


STATION NAME: Rock Cut (9076024)
****************************************************************************************************
    CD       T    TZ    SW     PW    WS   WD   WG    AT    WT    AP    SA    SG     RH    AG   VI
****************************************************************************************************
2019/12/05 11:18 EST   47.19  46.85   10  328   13 -99.9 -99.9 1014.2 -9.9 -9.999 -99.9 -99.99 -9.99
2019/12/05 11:24 EST   47.33  46.93    8  339   12 -99.9 -99.9 1014.1 -9.9 -9.999 -99.9 -99.99 -9.99
2019/12/05 11:30 EST   47.55  47.17    7  336   11 -99.9 -99.9 1014.2 -9.9 -9.999 -99.9 -99.99 -9.99
2019/12/05 11:36 EST   47.79  47.40    8  315   10 -99.9 -99.9 1014.2 -9.9 -9.999 -99.9 -99.99 -9.99
2019/12/05 11:42 EST   47.99  47.60    8  325   11 -99.9 -99.9 1014.1 -9.9 -9.999 -99.9 -99.99 -9.99
2019/12/05 11:48 EST   48.01  47.72    9  327   12 -99.9 -99.9 1014.3 -9.9 -9.999 -99.9 -99.99 -9.99
2019/12/05 11:54 EST   48.15  47.76    7  311   10 -99.9 -99.9 1014.5 -9.9 -9.999 -99.9 -99.99 -9.99
2019/12/05 12:00 EST   48.21  47.87    7  291   10 -99.9 -99.9 1014.7 -9.9 -9.999 -99.9 -99.99 -9.99
2019/12/05 12:06 EST   48.26  47.87    9  302   12 -99.9 -99.9 1014.7 -9.9 -9.999 -99.9 -99.99 -9.99
2019/12/05 12:12 EST   48.23  47.91    5  317    8 -99.9 -99.9 1014.7 -9.9 -9.999 -99.9 -99.99 -9.99
2019/12/05 12:18 EST   48.23  47.95    9  300   11 -99.9 -99.9 1014.8 -9.9 -9.999 -99.9 -99.99 -9.99
2019/12/05 12:24 EST   48.12  47.87    8  305   11 -99.9 -99.9 1014.8 -9.9 -9.999 -99.9 -99.99 -9.99
2019/12/05 12:30 EST   48.15  47.87    9  321   11 -99.9 -99.9 1014.7 -9.9 -9.999 -99.9 -99.99 -9.99
2019/12/05 12:36 EST   48.04  47.83   10  306   13 -99.9 -99.9 1014.7 -9.9 -9.999 -99.9 -99.99 -9.99
2019/12/05 12:42 EST   48.04  47.83   10  317   12 -99.9 -99.9 1014.6 -9.9 -9.999 -99.9 -99.99 -9.99
2019/12/05 12:48 EST   47.90  47.72    8  318   12 -99.9 -99.9 1014.5 -9.9 -9.999 -99.9 -99.99 -9.99
2019/12/05 12:54 EST   47.88  47.68    6  316   10 -99.9 -99.9 1014.3 -9.9 -9.999 -99.9 -99.99 -9.99
2019/12/05 13:00 EST   47.96  47.68    5  305    8 -99.9 -99.9 1014.2 -9.9 -9.999 -99.9 -99.99 -9.99
2019/12/05 13:06 EST   47.88  47.68    8  321   11 -99.9 -99.9 1014.0 -9.9 -9.999 -99.9 -99.99 -9.99
2019/12/05 13:12 EST   47.93  47.68    9  330   12 -99.9 -99.9 1014.0 -9.9 -9.999 -99.9 -99.99 -9.99
2019/12/05 13:18 EST   48.04  47.72    6  315   11 -99.9 -99.9 1014.1 -9.9 -9.999 -99.9 -99.99 -9.99
2019/12/05 13:24 EST   48.07  47.76    8  295   11 -99.9 -99.9 1014.1 -9.9 -9.999 -99.9 -99.99 -9.99
2019/12/05 13:30 EST   48.10  47.80    9  294   12 -99.9 -99.9 1014.2 -9.9 -9.999 -99.9 -99.99 -9.99
2019/12/05 13:36 EST   48.10  47.80    9  304   13 -99.9 -99.9 1014.2 -9.9 -9.999 -99.9 -99.99 -9.99
2019/12/05 13:42 EST   48.18  47.83    9  296   13 -99.9 -99.9 1014.2 -9.9 -9.999 -99.9 -99.99 -9.99
2019/12/05 13:48 EST   48.31  47.95    9  307   12 -99.9 -99.9 1014.4 -9.9 -9.999 -99.9 -99.99 -9.99
2019/12/05 13:54 EST   48.42  48.03    9  317   12 -99.9 -99.9 1014.4 -9.9 -9.999 -99.9 -99.99 -9.99
2019/12/05 14:00 EST   48.59  48.23   11  324   14 -99.9 -99.9 1014.3 -9.9 -9.999 -99.9 -99.99 -9.99
2019/12/05 14:06 EST   48.67  48.31   10  327   13 -99.9 -99.9 1014.3 -9.9 -9.999 -99.9 -99.99 -9.99
2019/12/05 14:12 EST   48.75  48.35    7  316   12 -99.9 -99.9 1014.4 -9.9 -9.999 -99.9 -99.99 -9.99
2019/12/05 14:18 EST   48.78  48.39    7  324   11 -99.9 -99.9 1014.4 -9.9 -9.999 -99.9 -99.99 -9.99
2019/12/05 14:24 EST   48.84  48.43    8  311   12 -99.9 -99.9 1014.7 -9.9 -9.999 -99.9 -99.99 -9.99
2019/12/05 14:30 EST   49.00  48.62   10  316   11 -99.9 -99.9 1014.7 -9.9 -9.999 -99.9 -99.99 -9.99
2019/12/05 14:36 EST   49.19  48.82    6  304   10 -99.9 -99.9 1014.7 -9.9 -9.999 -99.9 -99.99 -9.99
2019/12/05 14:42 EST   49.30  48.94    6  310   10 -99.9 -99.9 1014.7 -9.9 -9.999 -99.9 -99.99 -9.99
2019/12/05 14:48 EST   49.44  49.06    7  323   11 -99.9 -99.9 1014.7 -9.9 -9.999 -99.9 -99.99 -9.99
2019/12/05 14:54 EST   49.41  49.09    7  317    9 -99.9 -99.9 1014.6 -9.9 -9.999 -99.9 -99.99 -9.99
2019/12/05 15:00 EST   49.36  49.09    6  322    9 -99.9 -99.9 1014.7 -9.9 -9.999 -99.9 -99.99 -9.99
2019/12/05 15:06 EST   49.47  49.09    7  321    9 -99.9 -99.9 1014.7 -9.9 -9.999 -99.9 -99.99 -9.99
2019/12/05 15:12 EST   49.63  49.25    7  325    9 -99.9 -99.9 1014.7 -9.9 -9.999 -99.9 -99.99 -9.99
2019/12/05 15:18 EST   49.88  49.45    7  333    8 -99.9 -99.9 1014.7 -9.9 -9.999 -99.9 -99.99 -9.99
2019/12/05 15:24 EST   50.05  49.65    6  301    8 -99.9 -99.9 1014.8 -9.9 -9.999 -99.9 -99.99 -9.99
2019/12/05 15:30 EST   50.18  49.80    5  307    8 -99.9 -99.9 1014.8 -9.9 -9.999 -99.9 -99.99 -9.99
2019/12/05 15:36 EST   50.29  49.88    4  309    7 -99.9 -99.9 1014.9 -9.9 -9.999 -99.9 -99.99 -9.99
2019/12/05 15:42 EST   50.65  50.28    4  287    6 -99.9 -99.9 1014.9 -9.9 -9.999 -99.9 -99.99 -9.99
2019/12/05 15:48 EST   50.18  50.04    5  293    7 -99.9 -99.9 1015.1 -9.9 -9.999 -99.9 -99.99 -9.99
2019/12/05 15:54 EST   50.79  50.39    5  297    7 -99.9 -99.9 1014.9 -9.9 -9.999 -99.9 -99.99 -9.99
2019/12/05 16:00 EST   50.57  50.39    3  288    6 -99.9 -99.9 1014.9 -9.9 -9.999 -99.9 -99.99 -9.99
2019/12/05 16:06 EST   50.98  50.59    3  267    4 -99.9 -99.9 1014.9 -9.9 -9.999 -99.9 -99.99 -9.99
2019/12/05 16:12 EST   49.88  49.45    3  284    4 -99.9 -99.9 1015.1 -9.9 -9.999 -99.9 -99.99 -9.99
2019/12/05 16:18 EST   50.29  50.08    3  273    5 -99.9 -99.9 1015.1 -9.9 -9.999 -99.9 -99.99 -9.99
2019/12/05 16:24 EST   50.62  50.24    2  256    4 -99.9 -99.9 1015.0 -9.9 -9.999 -99.9 -99.99 -9.99
2019/12/05 16:30 EST   50.71  50.51    2  264    4 -99.9 -99.9 1015.1 -9.9 -9.999 -99.9 -99.99 -9.99
2019/12/05 16:36 EST   51.70  51.30    3  271    4 -99.9 -99.9 1015.0 -9.9 -9.999 -99.9 -99.99 -9.99
2019/12/05 16:42 EST   51.17  50.91    3  292    4 -99.9 -99.9 1015.1 -9.9 -9.999 -99.9 -99.99 -9.99
2019/12/05 16:48 EST   51.53  51.34    2  287    4 -99.9 -99.9 1015.1 -9.9 -9.999 -99.9 -99.99 -9.99
2019/12/05 16:54 EST   50.93  50.67    2  265    4 -99.9 -99.9 1015.1 -9.9 -9.999 -99.9 -99.99 -9.99
2019/12/05 17:00 EST   51.37  51.06    2  280    3 -99.9 -99.9 1015.1 -9.9 -9.999 -99.9 -99.99 -9.99
2019/12/05 17:06 EST   51.37  51.14    3  282    4 -99.9 -99.9 1015.1 -9.9 -9.999 -99.9 -99.99 -9.99
2019/12/05 17:12 EST   51.15  50.91    2  289    3 -99.9 -99.9 1015.2 -9.9 -9.999 -99.9 -99.99 -9.99
2019/12/05 17:18 EST   51.34  51.10    3  302    4 -99.9 -99.9 1015.3 -9.9 -9.999 -99.9 -99.99 -9.99
2019/12/05 17:24 EST   51.28  51.02    2  307    4 -99.9 -99.9 1015.3 -9.9 -9.999 -99.9 -99.99 -9.99
2019/12/05 17:30 EST   51.20  50.98    2  279    4 -99.9 -99.9 1015.3 -9.9 -9.999 -99.9 -99.99 -9.99
2019/12/05 17:36 EST   51.01  50.83    1  267    2 -99.9 -99.9 1015.4 -9.9 -9.999 -99.9 -99.99 -9.99
2019/12/05 17:42 EST   50.93  50.71    1  299    3 -99.9 -99.9 1015.4 -9.9 -9.999 -99.9 -99.99 -9.99
2019/12/05 17:48 EST   50.79  50.63    2  251    3 -99.9 -99.9 1015.4 -9.9 -9.999 -99.9 -99.99 -9.99
2019/12/05 17:54 EST   50.76  50.59    1  240    2 -99.9 -99.9 1015.3 -9.9 -9.999 -99.9 -99.99 -9.99
2019/12/05 18:00 EST   50.62  50.47    1  231    2 -99.9 -99.9 1015.3 -9.9 -9.999 -99.9 -99.99 -9.99
2019/12/05 18:06 EST   50.57  50.43    1  222    2 -99.9 -99.9 1015.3 -9.9 -9.999 -99.9 -99.99 -9.99
2019/12/05 18:12 EST   50.54  50.39    1  216    2 -99.9 -99.9 1015.3 -9.9 -9.999 -99.9 -99.99 -9.99
2019/12/05 18:18 EST   50.40  50.28    2  205    2 -99.9 -99.9 1015.3 -9.9 -9.999 -99.9 -99.99 -9.99
2019/12/05 18:24 EST   50.10  50.00    1  209    2 -99.9 -99.9 1015.4 -9.9 -9.999 -99.9 -99.99 -9.99
2019/12/05 18:30 EST   49.91  49.80    1  258    2 -99.9 -99.9 1015.5 -9.9 -9.999 -99.9 -99.99 -9.99
2019/12/05 18:36 EST   49.69  49.57    2  217    2 -99.9 -99.9 1015.5 -9.9 -9.999 -99.9 -99.99 -9.99
2019/12/05 18:42 EST   49.63  49.53    1  236    2 -99.9 -99.9 1015.5 -9.9 -9.999 -99.9 -99.99 -9.99
2019/12/05 18:48 EST   49.55  49.37    2  204    3 -99.9 -99.9 1015.4 -9.9 -9.999 -99.9 -99.99 -9.99
2019/12/05 18:54 EST   49.33  49.25    2  196    3 -99.9 -99.9 1015.4 -9.9 -9.999 -99.9 -99.99 -9.99
2019/12/05 19:00 EST   49.17  49.06    1  220    2 -99.9 -99.9 1015.5 -9.9 -9.999 -99.9 -99.99 -9.99
2019/12/05 19:06 EST   49.06  48.98    2  204    2 -99.9 -99.9 1015.4 -9.9 -9.999 -99.9 -99.99 -9.99
2019/12/05 19:12 EST   49.06  48.86    1  226    2 -99.9 -99.9 1015.5 -9.9 -9.999 -99.9 -99.99 -9.99
2019/12/05 19:18 EST   48.59  48.46    1  274    1 -99.9 -99.9 1015.6 -9.9 -9.999 -99.9 -99.99 -9.99
2019/12/05 19:24 EST   49.11  48.86    1   76    2 -99.9 -99.9 1015.5 -9.9 -9.999 -99.9 -99.99 -9.99
2019/12/05 19:30 EST   48.45  48.07    2   71    3 -99.9 -99.9 1015.5 -9.9 -9.999 -99.9 -99.99 -9.99
2019/12/05 19:36 EST   48.10  47.95    3   84    4 -99.9 -99.9 1015.5 -9.9 -9.999 -99.9 -99.99 -9.99
2019/12/05 19:42 EST   48.07  47.87    3   67    4 -99.9 -99.9 1015.7 -9.9 -9.999 -99.9 -99.99 -9.99
2019/12/05 19:48 EST   48.56  48.31    3   71    4 -99.9 -99.9 1015.6 -9.9 -9.999 -99.9 -99.99 -9.99
2019/12/05 19:54 EST   48.70  48.43    3   74    4 -99.9 -99.9 1015.6 -9.9 -9.999 -99.9 -99.99 -9.99
2019/12/05 20:00 EST   48.56  48.31    3   79    4 -99.9 -99.9 1015.5 -9.9 -9.999 -99.9 -99.99 -9.99
2019/12/05 20:06 EST   47.44  47.64    4   79    4 -99.9 -99.9 1015.5 -9.9 -9.999 -99.9 -99.99 -9.99
2019/12/05 20:12 EST   48.42  47.87    4   78    4 -99.9 -99.9 1015.5 -9.9 -9.999 -99.9 -99.99 -9.99
2019/12/05 20:18 EST   47.52  47.05    4   81    4 -99.9 -99.9 1015.4 -9.9 -9.999 -99.9 -99.99 -9.99
2019/12/05 20:24 EST   47.66  47.40    4   92    4 -99.9 -99.9 1015.4 -9.9 -9.999 -99.9 -99.99 -9.99
2019/12/05 20:30 EST   47.85  47.64    4   89    5 -99.9 -99.9 1015.3 -9.9 -9.999 -99.9 -99.99 -9.99
2019/12/05 20:36 EST   48.31  48.07    4   98    5 -99.9 -99.9 1015.2 -9.9 -9.999 -99.9 -99.99 -9.99
2019/12/05 20:42 EST   48.18  47.91    4   99    5 -99.9 -99.9 1015.2 -9.9 -9.999 -99.9 -99.99 -9.99
2019/12/05 20:48 EST   47.96  47.76    3   98    5 -99.9 -99.9 1015.3 -9.9 -9.999 -99.9 -99.99 -9.99
2019/12/05 20:54 EST   47.93  47.72    3   90    4 -99.9 -99.9 1015.3 -9.9 -9.999 -99.9 -99.99 -9.99
2019/12/05 21:00 EST   47.96  47.72    3   89    4 -99.9 -99.9 1015.2 -9.9 -9.999 -99.9 -99.99 -9.99
2019/12/05 21:06 EST   48.01  47.72    4   77    4 -99.9 -99.9 1015.3 -9.9 -9.999 -99.9 -99.99 -9.99
2019/12/05 21:12 EST   48.37  48.03    4   81    4 -99.9 -99.9 1015.2 -9.9 -9.999 -99.9 -99.99 -9.99
2019/12/05 21:18 EST   48.56  48.27    4   80    5 -99.9 -99.9 1015.3 -9.9 -9.999 -99.9 -99.99 -9.99
2019/12/05 21:24 EST   48.62  48.39    3   86    5 -99.9 -99.9 1015.3 -9.9 -9.999 -99.9 -99.99 -9.99
2019/12/05 21:30 EST   48.59  48.35    3   78    4 -99.9 -99.9 1015.3 -9.9 -9.999 -99.9 -99.99 -9.99
2019/12/05 21:36 EST   48.53  48.35    4   82    4 -99.9 -99.9 1015.1 -9.9 -9.999 -99.9 -99.99 -9.99
2019/12/05 21:42 EST   48.64  48.35    4   85    5 -99.9 -99.9 1015.2 -9.9 -9.999 -99.9 -99.99 -9.99
2019/12/05 21:48 EST   48.89  48.54    5   94    6 -99.9 -99.9 1015.1 -9.9 -9.999 -99.9 -99.99 -9.99
2019/12/05 21:54 EST   49.11  48.74    5   84    6 -99.9 -99.9 1015.0 -9.9 -9.999 -99.9 -99.99 -9.99
2019/12/05 22:00 EST   49.19  48.86    5   87    6 -99.9 -99.9 1015.0 -9.9 -9.999 -99.9 -99.99 -9.99
2019/12/05 22:06 EST   49.36  48.98    5   94    7 -99.9 -99.9 1014.9 -9.9 -9.999 -99.9 -99.99 -9.99
2019/12/05 22:12 EST   49.52  49.17    4   94    6 -99.9 -99.9 1014.9 -9.9 -9.999 -99.9 -99.99 -9.99
2019/12/05 22:18 EST   49.36  49.13    4   90    6 -99.9 -99.9 1015.1 -9.9 -9.999 -99.9 -99.99 -9.99
2019/12/05 22:24 EST   49.41  49.13    4   87    5 -99.9 -99.9 1015.3 -9.9 -9.999 -99.9 -99.99 -9.99
2019/12/05 22:30 EST   49.55  49.17    4   74    5 -99.9 -99.9 1015.3 -9.9 -9.999 -99.9 -99.99 -9.99
2019/12/05 22:36 EST   49.63  49.25    4   73    5 -99.9 -99.9 1015.4 -9.9 -9.999 -99.9 -99.99 -9.99
2019/12/05 22:42 EST   49.80  49.41    4   75    4 -99.9 -99.9 1015.4 -9.9 -9.999 -99.9 -99.99 -9.99
2019/12/05 22:48 EST   49.61  49.37    4   70    5 -99.9 -99.9 1015.3 -9.9 -9.999 -99.9 -99.99 -9.99
2019/12/05 22:54 EST   49.55  49.33    4   85    6 -99.9 -99.9 1015.5 -9.9 -9.999 -99.9 -99.99 -9.99
2019/12/05 23:00 EST   49.72  49.41    4   85    6 -99.9 -99.9 1015.5 -9.9 -9.999 -99.9 -99.99 -9.99
2019/12/05 23:06 EST   49.85  49.49    4   80    6 -99.9 -99.9 1015.6 -9.9 -9.999 -99.9 -99.99 -9.99
2019/12/05 23:12 EST   49.85  49.53    4   92    6 -99.9 -99.9 1015.6 -9.9 -9.999 -99.9 -99.99 -9.99
2019/12/05 23:18 EST   49.72  49.49    4   82    5 -99.9 -99.9 1015.5 -9.9 -9.999 -99.9 -99.99 -9.99
2019/12/05 23:24 EST   49.77  49.49    4   94    5 -99.9 -99.9 1015.6 -9.9 -9.999 -99.9 -99.99 -9.99
2019/12/05 23:30 EST   49.44  49.29    4   78    5 -99.9 -99.9 1015.7 -9.9 -9.999 -99.9 -99.99 -9.99
2019/12/05 23:36 EST   49.55  49.29    3   58    5 -99.9 -99.9 1015.7 -9.9 -9.999 -99.9 -99.99 -9.99
2019/12/05 23:42 EST   49.47  49.25    5   68    7 -99.9 -99.9 1015.7 -9.9 -9.999 -99.9 -99.99 -9.99
2019/12/05 23:48 EST   49.55  49.29    5   63    6 -99.9 -99.9 1015.7 -9.9 -9.999 -99.9 -99.99 -9.99
2019/12/05 23:54 EST   49.52  49.29    4   58    6 -99.9 -99.9 1015.6 -9.9 -9.999 -99.9 -99.99 -9.99
2019/12/06 00:00 EST   49.63  49.33    5   62    6 -99.9 -99.9 1015.6 -9.9 -9.999 -99.9 -99.99 -9.99
2019/12/06 00:06 EST   49.74  49.41    5   76    7 -99.9 -99.9 1015.6 -9.9 -9.999 -99.9 -99.99 -9.99
2019/12/06 00:12 EST   49.74  49.45    4   66    6 -99.9 -99.9 1015.5 -9.9 -9.999 -99.9 -99.99 -9.99
2019/12/06 00:18 EST   49.94  49.69    5   71    7 -99.9 -99.9 1015.5 -9.9 -9.999 -99.9 -99.99 -9.99
2019/12/06 00:24 EST   50.07  49.65    5   90    8 -99.9 -99.9 1015.4 -9.9 -9.999 -99.9 -99.99 -9.99
2019/12/06 00:30 EST   48.53  49.06    5   81    7 -99.9 -99.9 1015.3 -9.9 -9.999 -99.9 -99.99 -9.99
2019/12/06 00:36 EST   49.74  49.02    4   87    7 -99.9 -99.9 1015.2 -9.9 -9.999 -99.9 -99.99 -9.99
2019/12/06 00:42 EST   48.95  48.50    6   79    9 -99.9 -99.9 1015.2 -9.9 -9.999 -99.9 -99.99 -9.99
2019/12/06 00:48 EST   49.55  49.17    5   73    8 -99.9 -99.9 1015.1 -9.9 -9.999 -99.9 -99.99 -9.99
2019/12/06 00:54 EST   49.66  49.45    5   72    7 -99.9 -99.9 1015.1 -9.9 -9.999 -99.9 -99.99 -9.99
2019/12/06 01:00 EST   50.21  50.00    5   65    8 -99.9 -99.9 1014.9 -9.9 -9.999 -99.9 -99.99 -9.99
2019/12/06 01:06 EST   49.69  49.45    7   74    8 -99.9 -99.9 1014.9 -9.9 -9.999 -99.9 -99.99 -9.99
2019/12/06 01:12 EST   49.61  49.41    5   69    7 -99.9 -99.9 1014.9 -9.9 -9.999 -99.9 -99.99 -9.99
2019/12/06 01:18 EST   49.61  49.33    4   64    6 -99.9 -99.9 1014.9 -9.9 -9.999 -99.9 -99.99 -9.99
2019/12/06 01:24 EST   49.47  49.21    4   72    6 -99.9 -99.9 1014.9 -9.9 -9.999 -99.9 -99.99 -9.99
2019/12/06 01:30 EST   49.33  49.13    4   63    6 -99.9 -99.9 1014.9 -9.9 -9.999 -99.9 -99.99 -9.99
2019/12/06 01:36 EST   49.55  49.25    5   62    6 -99.9 -99.9 1014.9 -9.9 -9.999 -99.9 -99.99 -9.99
2019/12/06 01:42 EST   49.74  49.45    4   74    5 -99.9 -99.9 1014.8 -9.9 -9.999 -99.9 -99.99 -9.99
2019/12/06 01:48 EST   49.72  49.49    4   73    4 -99.9 -99.9 1014.8 -9.9 -9.999 -99.9 -99.99 -9.99
2019/12/06 01:54 EST   49.50  49.33    4   86    5 -99.9 -99.9 1014.7 -9.9 -9.999 -99.9 -99.99 -9.99
2019/12/06 02:00 EST   49.28  49.13    4   86    6 -99.9 -99.9 1014.6 -9.9 -9.999 -99.9 -99.99 -9.99
2019/12/06 02:06 EST   49.39  49.13    4   95    6 -99.9 -99.9 1014.6 -9.9 -9.999 -99.9 -99.99 -9.99
2019/12/06 02:12 EST   49.61  49.25    4   98    6 -99.9 -99.9 1014.5 -9.9 -9.999 -99.9 -99.99 -9.99
2019/12/06 02:18 EST   49.69  49.37    5   85    7 -99.9 -99.9 1014.4 -9.9 -9.999 -99.9 -99.99 -9.99
2019/12/06 02:24 EST   49.61  49.33    3   98    5 -99.9 -99.9 1014.4 -9.9 -9.999 -99.9 -99.99 -9.99
2019/12/06 02:30 EST   49.58  49.33    4   90    6 -99.9 -99.9 1014.5 -9.9 -9.999 -99.9 -99.99 -9.99
2019/12/06 02:36 EST   49.47  49.29    4   71    6 -99.9 -99.9 1014.6 -9.9 -9.999 -99.9 -99.99 -9.99
2019/12/06 02:42 EST   49.47  49.29    4   60    5 -99.9 -99.9 1014.6 -9.9 -9.999 -99.9 -99.99 -9.99
2019/12/06 02:48 EST   49.41  49.25    3   73    6 -99.9 -99.9 1014.7 -9.9 -9.999 -99.9 -99.99 -9.99
2019/12/06 02:54 EST   49.47  49.25    3   77    4 -99.9 -99.9 1014.7 -9.9 -9.999 -99.9 -99.99 -9.99
2019/12/06 03:00 EST   49.47  49.25    3   78    4 -99.9 -99.9 1014.7 -9.9 -9.999 -99.9 -99.99 -9.99
2019/12/06 03:06 EST   49.50  49.25    2   84    4 -99.9 -99.9 1014.7 -9.9 -9.999 -99.9 -99.99 -9.99
2019/12/06 03:12 EST   49.55  49.29    3   85    4 -99.9 -99.9 1014.8 -9.9 -9.999 -99.9 -99.99 -9.99
2019/12/06 03:18 EST   49.52  49.29    3   82    4 -99.9 -99.9 1014.8 -9.9 -9.999 -99.9 -99.99 -9.99
2019/12/06 03:24 EST   49.50  49.29    3  111    4 -99.9 -99.9 1014.9 -9.9 -9.999 -99.9 -99.99 -9.99
2019/12/06 03:30 EST   49.33  49.17    2  117    4 -99.9 -99.9 1014.9 -9.9 -9.999 -99.9 -99.99 -9.99
2019/12/06 03:36 EST   49.25  49.13    3  101    4 -99.9 -99.9 1014.9 -9.9 -9.999 -99.9 -99.99 -9.99
2019/12/06 03:42 EST   49.39  49.13    2  115    3 -99.9 -99.9 1015.0 -9.9 -9.999 -99.9 -99.99 -9.99
2019/12/06 03:48 EST   48.97  48.78    2   98    3 -99.9 -99.9 1015.0 -9.9 -9.999 -99.9 -99.99 -9.99
2019/12/06 03:54 EST   49.41  49.21    3  110    4 -99.9 -99.9 1015.2 -9.9 -9.999 -99.9 -99.99 -9.99
2019/12/06 04:00 EST   48.56  48.50    3   80    4 -99.9 -99.9 1015.2 -9.9 -9.999 -99.9 -99.99 -9.99
2019/12/06 04:06 EST   49.36  49.06    3  104    3 -99.9 -99.9 1015.1 -9.9 -9.999 -99.9 -99.99 -9.99
2019/12/06 04:12 EST   48.89  48.54    3   83    4 -99.9 -99.9 1015.1 -9.9 -9.999 -99.9 -99.99 -9.99
2019/12/06 04:18 EST   49.33  48.98    2   76    4 -99.9 -99.9 1015.0 -9.9 -9.999 -99.9 -99.99 -9.99
2019/12/06 04:24 EST   49.58  49.21    3   85    4 -99.9 -99.9 1015.0 -9.9 -9.999 -99.9 -99.99 -9.99
2019/12/06 04:30 EST   49.52  49.33    2   85    3 -99.9 -99.9 1015.0 -9.9 -9.999 -99.9 -99.99 -9.99
2019/12/06 04:36 EST   49.25  49.02    2   43    3 -99.9 -99.9 1015.1 -9.9 -9.999 -99.9 -99.99 -9.99
2019/12/06 04:42 EST   49.19  48.98    1   81    2 -99.9 -99.9 1015.2 -9.9 -9.999 -99.9 -99.99 -9.99
2019/12/06 04:48 EST   49.19  48.98    2   47    3 -99.9 -99.9 1015.2 -9.9 -9.999 -99.9 -99.99 -9.99
2019/12/06 04:54 EST   49.22  48.98    2   34    3 -99.9 -99.9 1015.3 -9.9 -9.999 -99.9 -99.99 -9.99
2019/12/06 05:00 EST   49.22  48.94    2   30    3 -99.9 -99.9 1015.4 -9.9 -9.999 -99.9 -99.99 -9.99
2019/12/06 05:06 EST   49.39  49.06    2   12    3 -99.9 -99.9 1015.3 -9.9 -9.999 -99.9 -99.99 -9.99
2019/12/06 05:12 EST  -99.99 -99.99 -999 -999 -999 -99.9 -99.9 -999.9 -9.9 -9.999 -99.9 -99.99 -9.99
2019/12/06 05:18 EST  -99.99 -99.99 -999 -999 -999 -99.9 -99.9 -999.9 -9.9 -9.999 -99.9 -99.99 -9.99
2019/12/06 05:24 EST  -99.99 -99.99 -999 -999 -999 -99.9 -99.9 -999.9 -9.9 -9.999 -99.9 -99.99 -9.99
2019/12/06 05:30 EST  -99.99 -99.99 -999 -999 -999 -99.9 -99.9 -999.9 -9.9 -9.999 -99.9 -99.99 -9.99
2019/12/06 05:36 EST  -99.99 -99.99 -999 -999 -999 -99.9 -99.9 -999.9 -9.9 -9.999 -99.9 -99.99 -9.99
2019/12/06 05:42 EST  -99.99 -99.99 -999 -999 -999 -99.9 -99.9 -999.9 -9.9 -9.999 -99.9 -99.99 -9.99
2019/12/06 05:48 EST  -99.99 -99.99 -999 -999 -999 -99.9 -99.9 -999.9 -9.9 -9.999 -99.9 -99.99 -9.99
2019/12/06 05:54 EST  -99.99 -99.99 -999 -999 -999 -99.9 -99.9 -999.9 -9.9 -9.999 -99.9 -99.99 -9.99
2019/12/06 06:00 EST  -99.99 -99.99 -999 -999 -999 -99.9 -99.9 -999.9 -9.9 -9.999 -99.9 -99.99 -9.99
2019/12/06 06:06 EST  -99.99 -99.99 -999 -999 -999 -99.9 -99.9 -999.9 -9.9 -9.999 -99.9 -99.99 -9.99
2019/12/06 06:12 EST  -99.99 -99.99 -999 -999 -999 -99.9 -99.9 -999.9 -9.9 -9.999 -99.9 -99.99 -9.99
2019/12/06 06:18 EST  -99.99 -99.99 -999 -999 -999 -99.9 -99.9 -999.9 -9.9 -9.999 -99.9 -99.99 -9.99
2019/12/06 06:24 EST  -99.99 -99.99 -999 -999 -999 -99.9 -99.9 -999.9 -9.9 -9.999 -99.9 -99.99 -9.99
2019/12/06 06:30 EST  -99.99 -99.99 -999 -999 -999 -99.9 -99.9 -999.9 -9.9 -9.999 -99.9 -99.99 -9.99
2019/12/06 06:36 EST  -99.99 -99.99 -999 -999 -999 -99.9 -99.9 -999.9 -9.9 -9.999 -99.9 -99.99 -9.99
2019/12/06 06:42 EST  -99.99 -99.99 -999 -999 -999 -99.9 -99.9 -999.9 -9.9 -9.999 -99.9 -99.99 -9.99
2019/12/06 06:48 EST  -99.99 -99.99 -999 -999 -999 -99.9 -99.9 -999.9 -9.9 -9.999 -99.9 -99.99 -9.99
2019/12/06 06:54 EST  -99.99 -99.99 -999 -999 -999 -99.9 -99.9 -999.9 -9.9 -9.999 -99.9 -99.99 -9.99
2019/12/06 07:00 EST  -99.99 -99.99 -999 -999 -999 -99.9 -99.9 -999.9 -9.9 -9.999 -99.9 -99.99 -9.99
2019/12/06 07:06 EST  -99.99 -99.99 -999 -999 -999 -99.9 -99.9 -999.9 -9.9 -9.999 -99.9 -99.99 -9.99
2019/12/06 07:12 EST  -99.99 -99.99 -999 -999 -999 -99.9 -99.9 -999.9 -9.9 -9.999 -99.9 -99.99 -9.99
2019/12/06 07:18 EST  -99.99 -99.99 -999 -999 -999 -99.9 -99.9 -999.9 -9.9 -9.999 -99.9 -99.99 -9.99
2019/12/06 07:24 EST  -99.99 -99.99 -999 -999 -999 -99.9 -99.9 -999.9 -9.9 -9.999 -99.9 -99.99 -9.99
2019/12/06 07:30 EST  -99.99 -99.99 -999 -999 -999 -99.9 -99.9 -999.9 -9.9 -9.999 -99.9 -99.99 -9.99
2019/12/06 07:36 EST  -99.99 -99.99 -999 -999 -999 -99.9 -99.9 -999.9 -9.9 -9.999 -99.9 -99.99 -9.99
2019/12/06 07:42 EST  -99.99 -99.99 -999 -999 -999 -99.9 -99.9 -999.9 -9.9 -9.999 -99.9 -99.99 -9.99
2019/12/06 07:48 EST  -99.99 -99.99 -999 -999 -999 -99.9 -99.9 -999.9 -9.9 -9.999 -99.9 -99.99 -9.99
2019/12/06 07:54 EST  -99.99 -99.99 -999 -999 -999 -99.9 -99.9 -999.9 -9.9 -9.999 -99.9 -99.99 -9.99
2019/12/06 08:00 EST  -99.99 -99.99 -999 -999 -999 -99.9 -99.9 -999.9 -9.9 -9.999 -99.9 -99.99 -9.99
2019/12/06 08:06 EST  -99.99 -99.99 -999 -999 -999 -99.9 -99.9 -999.9 -9.9 -9.999 -99.9 -99.99 -9.99
2019/12/06 08:12 EST  -99.99 -99.99 -999 -999 -999 -99.9 -99.9 -999.9 -9.9 -9.999 -99.9 -99.99 -9.99
2019/12/06 08:18 EST  -99.99 -99.99 -999 -999 -999 -99.9 -99.9 -999.9 -9.9 -9.999 -99.9 -99.99 -9.99
2019/12/06 08:24 EST  -99.99 -99.99 -999 -999 -999 -99.9 -99.9 -999.9 -9.9 -9.999 -99.9 -99.99 -9.99
2019/12/06 08:30 EST  -99.99 -99.99 -999 -999 -999 -99.9 -99.9 -999.9 -9.9 -9.999 -99.9 -99.99 -9.99
2019/12/06 08:36 EST  -99.99 -99.99 -999 -999 -999 -99.9 -99.9 -999.9 -9.9 -9.999 -99.9 -99.99 -9.99
2019/12/06 08:42 EST  -99.99 -99.99 -999 -999 -999 -99.9 -99.9 -999.9 -9.9 -9.999 -99.9 -99.99 -9.99
2019/12/06 08:48 EST  -99.99 -99.99 -999 -999 -999 -99.9 -99.9 -999.9 -9.9 -9.999 -99.9 -99.99 -9.99
2019/12/06 08:54 EST  -99.99 -99.99 -999 -999 -999 -99.9 -99.9 -999.9 -9.9 -9.999 -99.9 -99.99 -9.99
2019/12/06 09:00 EST  -99.99 -99.99 -999 -999 -999 -99.9 -99.9 -999.9 -9.9 -9.999 -99.9 -99.99 -9.99
2019/12/06 09:06 EST  -99.99 -99.99 -999 -999 -999 -99.9 -99.9 -999.9 -9.9 -9.999 -99.9 -99.99 -9.99
2019/12/06 09:12 EST  -99.99 -99.99 -999 -999 -999 -99.9 -99.9 -999.9 -9.9 -9.999 -99.9 -99.99 -9.99
2019/12/06 09:18 EST  -99.99 -99.99 -999 -999 -999 -99.9 -99.9 -999.9 -9.9 -9.999 -99.9 -99.99 -9.99
2019/12/06 09:24 EST  -99.99 -99.99 -999 -999 -999 -99.9 -99.9 -999.9 -9.9 -9.999 -99.9 -99.99 -9.99
2019/12/06 09:30 EST  -99.99 -99.99 -999 -999 -999 -99.9 -99.9 -999.9 -9.9 -9.999 -99.9 -99.99 -9.99
2019/12/06 09:36 EST  -99.99 -99.99 -999 -999 -999 -99.9 -99.9 -999.9 -9.9 -9.999 -99.9 -99.99 -9.99
2019/12/06 09:42 EST  -99.99 -99.99 -999 -999 -999 -99.9 -99.9 -999.9 -9.9 -9.999 -99.9 -99.99 -9.99
2019/12/06 09:48 EST  -99.99 -99.99 -999 -999 -999 -99.9 -99.9 -999.9 -9.9 -9.999 -99.9 -99.99 -9.99
2019/12/06 09:54 EST  -99.99 -99.99 -999 -999 -999 -99.9 -99.9 -999.9 -9.9 -9.999 -99.9 -99.99 -9.99
2019/12/06 10:00 EST  -99.99 -99.99 -999 -999 -999 -99.9 -99.9 -999.9 -9.9 -9.999 -99.9 -99.99 -9.99
2019/12/06 10:06 EST  -99.99 -99.99 -999 -999 -999 -99.9 -99.9 -999.9 -9.9 -9.999 -99.9 -99.99 -9.99
2019/12/06 10:12 EST  -99.99 -99.99 -999 -999 -999 -99.9 -99.9 -999.9 -9.9 -9.999 -99.9 -99.99 -9.99
2019/12/06 10:18 EST  -99.99 -99.99 -999 -999 -999 -99.9 -99.9 -999.9 -9.9 -9.999 -99.9 -99.99 -9.99
2019/12/06 10:24 EST  -99.99 -99.99 -999 -999 -999 -99.9 -99.9 -999.9 -9.9 -9.999 -99.9 -99.99 -9.99
2019/12/06 10:30 EST  -99.99 -99.99 -999 -999 -999 -99.9 -99.9 -999.9 -9.9 -9.999 -99.9 -99.99 -9.99
2019/12/06 10:36 EST  -99.99 -99.99 -999 -999 -999 -99.9 -99.9 -999.9 -9.9 -9.999 -99.9 -99.99 -9.99
2019/12/06 10:42 EST  -99.99 -99.99 -999 -999 -999 -99.9 -99.9 -999.9 -9.9 -9.999 -99.9 -99.99 -9.99
2019/12/06 10:48 EST  -99.99 -99.99 -999 -999 -999 -99.9 -99.9 -999.9 -9.9 -9.999 -99.9 -99.99 -9.99
2019/12/06 10:54 EST  -99.99 -99.99 -999 -999 -999 -99.9 -99.9 -999.9 -9.9 -9.999 -99.9 -99.99 -9.99
2019/12/06 11:00 EST  -99.99 -99.99 -999 -999 -999 -99.9 -99.9 -999.9 -9.9 -9.999 -99.9 -99.99 -9.99
2019/12/06 11:06 EST  -99.99 -99.99 -999 -999 -999 -99.9 -99.9 -999.9 -9.9 -9.999 -99.9 -99.99 -9.99
2019/12/06 11:12 EST  -99.99 -99.99 -999 -999 -999 -99.9 -99.9 -999.9 -9.9 -9.999 -99.9 -99.99 -9.99
2019/12/06 11:18 EST  -99.99 -99.99 -999 -999 -999 -99.9 -99.9 -999.9 -9.9 -9.999 -99.9 -99.99 -9.99